Latest Coastal Weather Observations for Burnie Port

IDT60701

Issued at 7:12 am EDT Monday 18 November 2019 (issued every 10 minutes, with the page automatically refreshed every 10 minutes)

About coastal observations | Map of coastal stations | Coastal observations for TAS | Marine services | Other Formats
Station Details ID: 091344 Name: BURNIE NTC AWS Lat: -41.05 Lon: 145.91 Height: 0.0 m
Data from the previous 72 hours. | See also: Recent months for locations in Tasmania
Date/Time
EDT
Wind Sea
Height
m
Swell Vis
km
Cloud Weather Temp
°C
Press
hPa
Rain since
9am
mm
Dir  Spd
kts
Gust
kts
Height
m
Period
s
Dir
18/07:00am WNW 8 13 - - - - - - - 11.2 1012.0 -
18/06:30am WNW 8 13 - - - - - - - 10.9 1012.3 -
18/06:00am W 6 10 - - - - - - - 10.4 1012.7 -
18/05:30am W 4 7 - - - - - - - 10.1 1012.5 -
18/05:00am W 3 6 - - - - - - - 10.2 1012.6 -
18/04:30am W 5 8 - - - - - - - 10.4 1012.8 -
18/04:00am WNW 7 10 - - - - - - - 10.4 1012.8 -
18/03:30am WNW 5 8 - - - - - - - 10.2 1013.3 -
18/03:00am WNW 6 9 - - - - - - - 10.3 1013.5 -
18/02:30am WNW 6 11 - - - - - - - 10.3 1014.0 -
18/02:00am W 7 13 - - - - - - - 10.1 1014.6 -
18/01:30am W 6 11 - - - - - - - 10.0 1015.1 -
18/01:00am W 7 12 - - - - - - - 9.8 1015.2 -
18/12:30am W 6 9 - - - - - - - 9.9 1015.7 -
18/12:00am W 4 9 - - - - - - - 10.0 1016.3 -
 
Date/Time
EDT
Wind Sea
Height
m
Swell Vis
km
Cloud Weather Temp
°C
Press
hPa
Rain since
9am
mm
Dir  Spd
kts
Gust
kts
Height
m
Period
s
Dir
17/11:30pm WNW 5 8 - - - - - - - 10.3 1016.6 -
17/11:00pm WNW 5 9 - - - - - - - 10.5 1016.8 -
17/10:30pm WNW 6 10 - - - - - - - 10.5 1017.2 -
17/10:00pm W 7 11 - - - - - - - 10.8 1017.3 -
17/09:30pm W 6 10 - - - - - - - 11.1 1017.1 -
17/09:00pm WNW 5 10 - - - - - - - 11.3 1017.3 -
17/08:30pm W 8 16 - - - - - - - 11.8 1017.3 -
17/08:00pm W 8 14 - - - - - - - 12.4 1017.1 -
17/07:30pm W 7 13 - - - - - - - 12.9 1016.9 -
17/07:00pm W 8 13 - - - - - - - 13.4 1016.8 -
17/06:30pm WSW 9 16 - - - - - - - 13.8 1016.6 -
17/06:00pm WSW 10 18 - - - - - - - 14.3 1016.7 -
17/05:30pm WSW 11 18 - - - - - - - 14.8 1016.6 -
17/05:00pm WSW 7 17 - - - - - - - 15.7 1016.4 -
17/04:30pm WSW 9 17 - - - - - - - 15.0 1016.6 -
17/04:00pm WSW 8 15 - - - - - - - 15.0 1016.5 -
17/03:30pm W 10 18 - - - - - - - 15.2 1016.4 -
17/03:00pm W 10 17 - - - - - - - 15.0 1016.5 -
17/02:30pm WSW 9 17 - - - - - - - 14.2 1016.8 -
17/02:00pm WSW 9 18 - - - - - - - 14.2 1017.2 -
17/01:30pm W 9 17 - - - - - - - 14.5 1017.1 -
17/01:00pm W 9 17 - - - - - - - 13.8 1017.1 -
17/12:30pm WSW 8 16 - - - - - - - 13.5 1017.4 -
17/12:00pm SW 13 22 - - - - - - - 13.5 1017.6 -
17/11:30am SW 9 18 - - - - - - - 13.1 1017.9 -
17/11:00am SW 8 17 - - - - - - - 12.3 1018.0 -
17/10:30am SW 9 16 - - - - - - - 11.9 1017.6 -
17/10:00am W 10 16 - - - - - - - 11.7 1017.6 -
17/09:30am WSW 7 13 - - - - - - - 11.4 1017.5 -
17/09:00am WSW 7 13 - - - - - - - 10.7 1017.3 -
17/08:30am SW 8 16 - - - - - - - 10.4 1017.2 -
17/08:00am W 6 13 - - - - - - - 9.7 1017.0 -
17/07:30am WNW 7 10 - - - - - - - 9.0 1016.7 -
17/07:00am WNW 6 8 - - - - - - - 8.3 1016.3 -
17/06:30am WNW 5 8 - - - - - - - 8.5 1016.1 -
17/06:00am WNW 4 7 - - - - - - - 7.9 1015.6 -
17/05:30am WNW 5 8 - - - - - - - 7.9 1015.2 -
17/05:00am WNW 7 9 - - - - - - - 8.4 1014.7 -
17/04:30am WNW 5 10 - - - - - - - 8.6 1014.7 -
17/04:00am WSW 5 9 - - - - - - - 8.9 1014.7 -
17/03:30am WSW 5 9 - - - - - - - 9.0 1014.5 -
17/03:00am WSW 8 16 - - - - - - - 9.2 1014.2 -
17/02:30am W 5 11 - - - - - - - 9.2 1013.8 -
17/02:00am W 3 9 - - - - - - - 9.5 1013.7 -
17/01:30am NW 8 12 - - - - - - - 9.2 1013.9 -
17/01:00am WNW 6 11 - - - - - - - 9.4 1013.6 -
17/12:30am W 7 11 - - - - - - - 9.6 1013.8 -
17/12:00am W 5 9 - - - - - - - 9.8 1013.8 -
 
Date/Time
EDT
Wind Sea
Height
m
Swell Vis
km
Cloud Weather Temp
°C
Press
hPa
Rain since
9am
mm
Dir  Spd
kts
Gust
kts
Height
m
Period
s
Dir
16/11:30pm WNW 6 11 - - - - - - - 9.6 1013.7 -
16/11:00pm WNW 7 13 - - - - - - - 9.6 1013.7 -
16/10:30pm W 8 13 - - - - - - - 9.8 1013.7 -
16/10:00pm W 10 17 - - - - - - - 10.2 1013.6 -
16/09:30pm W 10 15 - - - - - - - 10.4 1013.6 -
16/09:00pm WNW 10 20 - - - - - - - 10.7 1013.2 -
16/08:30pm WNW 10 18 - - - - - - - 10.9 1013.0 -
16/08:00pm WNW 10 17 - - - - - - - 11.0 1012.8 -
16/07:30pm WNW 11 20 - - - - - - - 11.6 1012.7 -
16/07:00pm W 14 22 - - - - - - - 11.7 1012.3 -
16/06:39pm WSW 16 29 - - - - - - - 11.7 1012.2 -
16/06:30pm WSW 12 22 - - - - - - - 11.9 1012.3 -
16/06:00pm W 14 25 - - - - - - - 12.7 1012.2 -
16/05:30pm WSW 13 24 - - - - - - - 12.7 1012.1 -
16/05:07pm W 15 30 - - - - - - - 13.1 1011.8 -
16/05:00pm W 12 23 - - - - - - - 13.4 1011.6 -
16/04:30pm W 15 33 - - - - - - - 12.7 1011.9 -
16/04:00pm W 16 33 - - - - - - - 12.4 1011.9 -
16/03:30pm WSW 15 26 - - - - - - - 13.3 1011.7 -
16/03:00pm W 15 26 - - - - - - - 13.5 1011.6 -
16/02:48pm WSW 15 25 - - - - - - - 13.1 1011.6 -
16/02:30pm WSW 12 22 - - - - - - - 13.7 1011.3 -
16/02:00pm WSW 15 27 - - - - - - - 13.6 1011.7 -
16/01:30pm W 16 28 - - - - - - - 13.6 1011.7 -
16/01:04pm W 15 25 - - - - - - - 13.6 1011.5 -
16/01:00pm W 14 25 - - - - - - - 13.4 1011.5 -
16/12:30pm W 17 30 - - - - - - - 13.8 1011.8 -
16/12:00pm W 16 27 - - - - - - - 12.8 1011.9 -
16/11:58am W 15 27 - - - - - - - 12.6 1011.9 -
16/11:30am W 13 23 - - - - - - - 13.4 1011.9 -
16/11:00am WSW 13 25 - - - - - - - 12.7 1012.0 -
16/10:30am W 12 23 - - - - - - - 12.7 1011.8 -
16/10:00am W 14 27 - - - - - - - 12.4 1011.7 -
16/09:30am WSW 13 25 - - - - - - - 11.1 1011.9 -
16/09:00am W 10 18 - - - - - - - 11.8 1011.6 -
16/08:30am W 9 20 - - - - - - - 10.9 1011.5 -
16/08:21am W 10 21 - - - - - - - 10.5 1011.4 -
16/08:00am W 6 12 - - - - - - - 10.0 1011.2 -
16/07:30am WNW 12 19 - - - - - - - 9.2 1011.1 -
16/07:00am WNW 6 10 - - - - - - - 8.5 1010.8 -
16/06:30am WNW 7 13 - - - - - - - 8.1 1010.6 -
16/06:00am WNW 8 12 - - - - - - - 8.2 1010.4 -
16/05:30am WNW 7 10 - - - - - - - 8.3 1010.0 -
16/05:00am WNW 5 10 - - - - - - - 8.4 1010.1 -
16/04:30am WNW 9 12 - - - - - - - 8.4 1010.0 -
16/04:00am WNW 7 10 - - - - - - - 8.3 1010.0 -
16/03:30am WNW 6 13 - - - - - - - 8.1 1009.8 -
16/03:00am WNW 6 12 - - - - - - - 8.3 1009.5 -
16/02:30am WNW 9 15 - - - - - - - 8.1 1009.6 -
16/02:00am W 8 13 - - - - - - - 8.0 1009.5 -
16/01:30am WNW 10 15 - - - - - - - 8.1 1009.5 -
16/01:00am WNW 9 14 - - - - - - - 8.1 1009.6 -
16/12:30am WNW 9 13 - - - - - - - 8.2 1009.8 -
16/12:00am WNW 9 17 - - - - - - - 8.5 1009.9 -
 
Date/Time
EDT
Wind Sea
Height
m
Swell Vis
km
Cloud Weather Temp
°C
Press
hPa
Rain since
9am
mm
Dir  Spd
kts
Gust
kts
Height
m
Period
s
Dir
15/11:30pm WNW 7 13 - - - - - - - 8.8 1009.6 -
15/11:00pm WNW 6 11 - - - - - - - 8.6 1009.8 -
15/10:30pm W 7 14 - - - - - - - 9.0 1009.6 -
15/10:00pm WNW 6 9 - - - - - - - 8.8 1009.3 -
15/09:30pm W 6 11 - - - - - - - 9.1 1009.3 -
15/09:00pm W 9 14 - - - - - - - 9.1 1008.8 -
15/08:30pm WSW 12 18 - - - - - - - 9.4 1008.4 -
15/08:00pm WSW 14 26 - - - - - - - 9.8 1007.8 -
15/07:54pm WSW 10 26 - - - - - - - 10.8 1007.9 -
15/07:30pm W 9 16 - - - - - - - 12.1 1007.1 -
15/07:00pm W 11 19 - - - - - - - 12.1 1006.7 -
15/06:30pm W 11 23 - - - - - - - 12.2 1006.5 -
15/06:00pm WSW 12 21 - - - - - - - 11.9 1005.8 -
15/05:31pm W 15 27 - - - - - - - 13.3 1005.4 -
15/05:30pm W 14 27 - - - - - - - 13.2 1005.3 -
15/05:00pm WSW 15 27 - - - - - - - 12.5 1005.1 -
15/04:32pm W 15 25 - - - - - - - 13.5 1004.4 -
15/04:30pm W 16 25 - - - - - - - 13.7 1004.4 -
15/04:25pm W 15 25 - - - - - - - 13.8 1004.3 -
15/04:00pm WSW 12 24 - - - - - - - 12.9 1004.2 -
15/03:30pm WSW 17 33 - - - - - - - 11.0 1004.7 -
15/03:00pm WSW 16 29 - - - - - - - 12.2 1004.0 -
15/02:49pm WSW 15 26 - - - - - - - 12.9 1003.5 -
15/02:30pm WSW 11 21 - - - - - - - 11.7 1003.6 -
15/02:00pm WSW 14 28 - - - - - - - 12.6 1003.5 -
15/01:39pm W 15 25 - - - - - - - 13.4 1003.3 -
15/01:30pm W 13 22 - - - - - - - 13.3 1003.3 -
15/01:00pm W 15 26 - - - - - - - 13.6 1003.0 -
15/12:54pm W 15 26 - - - - - - - 14.0 1003.0 -
15/12:30pm W 13 21 - - - - - - - 13.8 1002.9 -
15/12:00pm WSW 12 20 - - - - - - - 14.2 1003.0 -
15/11:30am WSW 15 28 - - - - - - - 13.5 1003.4 -
15/11:16am W 15 32 - - - - - - - 14.5 1003.3 -
15/11:00am W 14 24 - - - - - - - 14.0 1003.2 -
15/10:35am WNW 15 25 - - - - - - - 13.7 1003.4 -
15/10:30am W 13 25 - - - - - - - 13.3 1003.4 -
15/10:10am W 15 26 - - - - - - - 12.9 1003.6 -
15/10:00am W 15 24 - - - - - - - 13.1 1003.5 -
15/09:30am WSW 15 30 - - - - - - - 12.3 1003.6 -
15/09:00am W 18 29 - - - - - - - 12.4 1003.4 -
15/08:38am WSW 15 25 - - - - - - - 12.4 1003.3 -
15/08:30am W 15 25 - - - - - - - 12.4 1003.2 -
15/08:00am W 10 20 - - - - - - - 12.4 1003.0 -
15/07:30am W 8 14 - - - - - - - 11.7 1003.0 -

Other formats

Comma delimited format used in spreadsheet applications
http://www.bom.gov.au/fwo/IDT60701/IDT60701.95963.axf

JavaScript Object Notation format (JSON) in row-major order
http://www.bom.gov.au/fwo/IDT60701/IDT60701.95963.json

Data quality

Most of these data are generated automatically and are frequently updated. Quality checks on data are not normally performed. It is possible for incorrect values to appear. Refer to information at About Latest Weather Observations and please check the disclaimer before using these data.